createdAt,value
2023-02-28T00:02:18.893Z,5.95
2023-02-28T00:05:23.355Z,9.90
2023-02-28T00:08:25.958Z,6.03
2023-02-28T00:11:28.687Z,6.00
2023-02-28T00:14:31.491Z,11.27
2023-02-28T00:17:33.928Z,7.05
2023-02-28T00:20:36.818Z,9.73
2023-02-28T00:23:39.386Z,9.33
2023-02-28T00:26:41.776Z,7.38
2023-02-28T00:29:44.175Z,8.23
2023-02-28T00:32:48.161Z,6.43
2023-02-28T00:35:50.631Z,5.13
2023-02-28T00:38:53.260Z,11.35
2023-02-28T00:41:55.670Z,3.70
2023-02-28T00:44:58.114Z,5.23
2023-02-28T00:48:00.535Z,7.50
2023-02-28T00:51:03.336Z,8.02
2023-02-28T00:54:06.954Z,6.17
2023-02-28T00:57:09.425Z,7.25
2023-02-28T01:00:13.409Z,7.85
2023-02-28T01:03:20.204Z,6.25
2023-02-28T01:06:22.826Z,7.53
2023-02-28T01:09:25.240Z,7.57
2023-02-28T01:12:29.887Z,8.02
2023-02-28T01:15:33.686Z,6.00
2023-02-28T01:18:37.366Z,7.72
2023-02-28T01:21:40.099Z,5.15
2023-02-28T01:24:42.473Z,7.43
2023-02-28T01:27:48.538Z,5.05
2023-02-28T01:30:52.296Z,5.57
2023-02-28T01:33:54.882Z,7.32
2023-02-28T01:36:59.828Z,5.10
2023-02-28T01:40:02.788Z,9.60
2023-02-28T01:43:20.218Z,4.90
2023-02-28T01:46:22.802Z,8.80
2023-02-28T01:49:25.345Z,6.68
2023-02-28T01:52:30.283Z,8.07
2023-02-28T01:55:33.529Z,7.27
2023-02-28T01:58:38.097Z,6.38
2023-02-28T02:01:41.082Z,8.35
2023-02-28T02:04:52.515Z,8.65
2023-02-28T02:08:11.121Z,7.10
2023-02-28T02:11:18.469Z,8.18
2023-02-28T02:14:26.662Z,6.82
2023-02-28T02:17:46.886Z,5.10
2023-02-28T02:21:16.883Z,7.45
2023-02-28T02:24:41.776Z,6.18
2023-02-28T02:28:18.346Z,5.77
2023-02-28T02:31:49.003Z,6.15
2023-02-28T02:35:00.214Z,8.65
2023-02-28T02:38:35.472Z,5.82
2023-02-28T02:41:47.468Z,5.43
2023-02-28T02:44:59.541Z,7.00
2023-02-28T02:48:03.830Z,7.40
2023-02-28T02:51:13.102Z,5.57
2023-02-28T02:54:24.090Z,10.02
2023-02-28T02:57:32.949Z,5.07
2023-02-28T03:00:42.186Z,7.83
2023-02-28T03:03:46.830Z,8.25
2023-02-28T03:06:51.305Z,5.13
2023-02-28T03:09:55.796Z,9.02
2023-02-28T03:13:22.008Z,8.73
2023-02-28T03:16:41.942Z,8.20
2023-02-28T03:19:56.547Z,6.63
2023-02-28T03:23:22.698Z,7.07
2023-02-28T03:26:28.681Z,6.80
2023-02-28T03:29:47.418Z,7.85
2023-02-28T03:33:14.673Z,6.30
2023-02-28T03:36:21.528Z,6.57
2023-02-28T03:40:02.211Z,7.63
2023-02-28T03:43:12.879Z,7.65
2023-02-28T03:46:20.987Z,7.03
2023-02-28T03:49:28.117Z,5.85
2023-02-28T03:52:37.483Z,8.07
2023-02-28T03:55:48.413Z,7.57
2023-02-28T03:59:14.126Z,6.25
2023-02-28T04:02:16.574Z,5.90
2023-02-28T04:05:20.248Z,7.53
2023-02-28T04:08:23.821Z,6.95
2023-02-28T04:11:33.527Z,10.13
2023-02-28T04:14:35.935Z,9.98
2023-02-28T04:17:38.409Z,6.57
2023-02-28T04:20:40.805Z,6.78
2023-02-28T04:23:43.343Z,5.60
2023-02-28T04:26:51.440Z,5.27
2023-02-28T04:29:53.802Z,8.65
2023-02-28T04:32:56.154Z,7.35
2023-02-28T04:36:03.689Z,7.67
2023-02-28T04:39:06.182Z,9.77
2023-02-28T04:42:08.962Z,7.90
2023-02-28T04:45:11.705Z,7.10
2023-02-28T04:48:14.102Z,6.30
2023-02-28T04:51:19.030Z,7.88
2023-02-28T04:54:21.511Z,6.38
2023-02-28T04:57:23.866Z,6.53
2023-02-28T05:00:29.138Z,7.40
2023-02-28T05:03:31.625Z,7.68
2023-02-28T05:06:34.756Z,7.60
2023-02-28T05:09:37.156Z,7.20
2023-02-28T05:12:39.941Z,8.05
2023-02-28T05:15:42.346Z,8.48
2023-02-28T05:18:46.034Z,6.63
2023-02-28T05:21:56.044Z,7.97
2023-02-28T05:24:58.635Z,10.80
2023-02-28T05:28:01.034Z,7.70
2023-02-28T05:31:03.482Z,7.68
2023-02-28T05:34:05.930Z,8.23
2023-02-28T05:37:13.484Z,6.07
2023-02-28T05:40:16.513Z,7.90
2023-02-28T05:43:18.971Z,7.60
2023-02-28T05:46:21.331Z,4.95
2023-02-28T05:49:23.838Z,5.93
2023-02-28T05:52:26.350Z,6.95
2023-02-28T05:55:28.703Z,6.68
2023-02-28T05:58:32.106Z,6.03
2023-02-28T06:01:38.899Z,7.03
2023-02-28T06:04:41.943Z,8.10
2023-02-28T06:07:45.027Z,7.53
2023-02-28T06:10:47.726Z,5.72
2023-02-28T06:13:50.130Z,6.40
2023-02-28T06:16:53.100Z,6.28
2023-02-28T06:19:55.603Z,6.80
2023-02-28T06:22:59.587Z,7.22
2023-02-28T06:26:01.994Z,7.93
2023-02-28T06:29:04.588Z,8.03
2023-02-28T06:32:07.342Z,9.10
2023-02-28T06:35:09.822Z,10.02
2023-02-28T06:38:12.241Z,6.97
2023-02-28T06:41:14.674Z,7.60
2023-02-28T06:44:19.651Z,8.30
2023-02-28T06:47:22.945Z,8.77
2023-02-28T06:50:25.573Z,8.10
2023-02-28T06:53:27.930Z,8.75
2023-02-28T06:56:30.429Z,9.57
2023-02-28T06:59:32.831Z,8.50
2023-02-28T07:02:38.762Z,8.45
2023-02-28T07:05:41.162Z,6.68
2023-02-28T07:08:43.857Z,6.13
2023-02-28T07:11:46.234Z,7.40
2023-02-28T07:14:48.682Z,6.75
2023-02-28T07:17:51.163Z,8.52
2023-02-28T07:20:53.696Z,7.53
2023-02-28T07:23:57.706Z,6.38
2023-02-28T07:27:01.045Z,6.68
2023-02-28T07:30:04.661Z,9.47
2023-02-28T07:33:07.209Z,5.63
2023-02-28T07:36:22.002Z,8.68
2023-02-28T07:39:24.809Z,15.87
2023-02-28T07:42:27.200Z,6.13
2023-02-28T07:45:30.389Z,7.63
2023-02-28T07:48:32.959Z,5.80
2023-02-28T07:51:35.372Z,7.70
2023-02-28T07:54:37.742Z,8.02
2023-02-28T07:57:41.385Z,8.18
2023-02-28T08:00:43.966Z,7.87
2023-02-28T08:03:46.424Z,8.32
2023-02-28T08:06:48.880Z,12.18
2023-02-28T08:09:51.223Z,10.07
2023-02-28T08:12:53.637Z,8.30
2023-02-28T08:15:56.982Z,5.97
2023-02-28T08:18:59.737Z,7.32
2023-02-28T08:22:02.196Z,5.50
2023-02-28T08:25:05.022Z,10.10
2023-02-28T08:28:07.447Z,5.07
2023-02-28T08:31:12.753Z,7.63
2023-02-28T08:34:17.304Z,6.55
2023-02-28T08:37:19.764Z,6.07
2023-02-28T08:40:22.107Z,8.13
2023-02-28T08:43:24.486Z,5.78
2023-02-28T08:46:27.425Z,7.90
2023-02-28T08:49:29.909Z,6.05
2023-02-28T08:52:32.285Z,7.35
2023-02-28T08:55:34.937Z,14.65
2023-02-28T08:58:38.238Z,6.75
2023-02-28T09:01:42.553Z,9.80
2023-02-28T09:04:48.399Z,6.03
2023-02-28T09:07:51.106Z,6.90
2023-02-28T09:10:53.551Z,5.37
2023-02-28T09:13:58.549Z,10.18
2023-02-28T09:17:01.320Z,6.90
2023-02-28T09:20:04.003Z,5.30
2023-02-28T09:23:07.928Z,9.30
2023-02-28T09:26:16.354Z,7.10
2023-02-28T09:29:18.983Z,6.80
2023-02-28T09:32:21.451Z,5.93
2023-02-28T09:35:25.158Z,8.18
2023-02-28T09:38:28.903Z,8.20
2023-02-28T09:41:48.460Z,9.17
2023-02-28T09:44:51.995Z,6.95
2023-02-28T09:47:59.003Z,5.95
2023-02-28T09:51:26.210Z,10.35
2023-02-28T09:54:33.902Z,5.68
2023-02-28T09:57:42.281Z,6.28
2023-02-28T10:00:46.266Z,8.40
2023-02-28T10:04:29.871Z,6.80
2023-02-28T10:07:56.099Z,7.57
2023-02-28T10:11:02.837Z,6.70
2023-02-28T10:14:17.730Z,6.53
2023-02-28T10:17:27.093Z,6.45
2023-02-28T10:20:34.910Z,7.18
2023-02-28T10:23:38.615Z,7.07
2023-02-28T10:26:44.979Z,6.80
2023-02-28T10:29:50.454Z,6.45
2023-02-28T10:32:55.380Z,6.25
2023-02-28T10:35:58.667Z,8.87
2023-02-28T10:39:01.210Z,6.72
2023-02-28T10:42:04.012Z,11.20
2023-02-28T10:45:16.758Z,9.00
2023-02-28T10:48:19.167Z,11.60
2023-02-28T10:51:23.875Z,10.02
2023-02-28T10:54:34.888Z,12.00
2023-02-28T10:57:37.915Z,6.20
2023-02-28T11:00:41.015Z,7.65
2023-02-28T11:03:43.463Z,7.05
2023-02-28T11:06:46.266Z,8.07
2023-02-28T11:09:56.323Z,5.05
2023-02-28T11:13:00.977Z,6.75
2023-02-28T11:16:06.735Z,6.70
2023-02-28T11:19:22.163Z,10.60
2023-02-28T11:22:29.984Z,6.18
2023-02-28T11:25:38.985Z,6.43
2023-02-28T11:28:43.210Z,6.50
2023-02-28T11:32:01.553Z,9.20
2023-02-28T11:35:12.815Z,8.43
2023-02-28T11:38:15.422Z,9.27
2023-02-28T11:41:44.026Z,8.50
2023-02-28T11:45:24.860Z,8.68
2023-02-28T11:48:39.398Z,8.80
2023-02-28T11:51:57.975Z,9.88
2023-02-28T11:55:10.482Z,12.40
2023-02-28T11:58:12.946Z,8.10
2023-02-28T12:01:37.838Z,7.97
2023-02-28T12:04:59.233Z,7.63
2023-02-28T12:08:16.943Z,9.18
2023-02-28T12:11:48.364Z,7.63
2023-02-28T12:15:09.408Z,7.38
2023-02-28T12:18:28.901Z,6.03
2023-02-28T12:22:00.172Z,6.87
2023-02-28T12:25:22.253Z,6.90
2023-02-28T12:28:29.555Z,7.55
2023-02-28T12:31:37.517Z,7.28
2023-02-28T12:34:50.426Z,6.65
2023-02-28T12:38:13.872Z,7.40
2023-02-28T12:41:46.900Z,9.85
2023-02-28T12:45:15.556Z,10.47
2023-02-28T12:49:13.708Z,6.65
2023-02-28T12:52:21.216Z,7.50
2023-02-28T12:55:46.598Z,9.63
2023-02-28T12:58:57.848Z,9.27
2023-02-28T13:02:25.062Z,9.25
2023-02-28T13:05:27.534Z,9.80
2023-02-28T13:09:00.478Z,21.27
2023-02-28T13:12:13.134Z,12.18
2023-02-28T13:15:22.935Z,8.68
2023-02-28T13:18:34.417Z,10.97
2023-02-28T13:21:45.581Z,11.13
2023-02-28T13:24:52.457Z,7.70
2023-02-28T13:27:57.906Z,6.43
2023-02-28T13:31:04.529Z,10.88
2023-02-28T13:34:15.934Z,7.95
2023-02-28T13:37:25.433Z,8.73
2023-02-28T13:40:38.784Z,6.93
2023-02-28T13:44:01.990Z,12.65
2023-02-28T13:47:04.399Z,13.95
2023-02-28T13:50:21.757Z,7.37
2023-02-28T13:53:40.111Z,6.88
2023-02-28T13:57:12.323Z,6.97
2023-02-28T14:00:18.055Z,7.83
2023-02-28T14:03:47.960Z,9.73
2023-02-28T14:06:54.390Z,12.75
2023-02-28T14:10:07.057Z,10.88
2023-02-28T14:13:14.455Z,6.65
2023-02-28T14:16:27.697Z,7.65
2023-02-28T14:19:32.356Z,8.35
2023-02-28T14:22:56.329Z,12.43
2023-02-28T14:26:11.820Z,10.52
2023-02-28T14:29:43.288Z,5.68
2023-02-28T14:32:55.544Z,7.13
2023-02-28T14:36:34.361Z,9.50
2023-02-28T14:39:37.912Z,15.27
2023-02-28T14:42:44.813Z,12.55
2023-02-28T14:45:52.039Z,7.25
2023-02-28T14:48:54.530Z,7.28
2023-02-28T14:52:24.624Z,8.15
2023-02-28T14:55:30.773Z,12.10
2023-02-28T14:58:35.238Z,9.23
2023-02-28T15:01:37.676Z,8.93
2023-02-28T15:04:40.157Z,9.07
2023-02-28T15:07:42.600Z,12.77
2023-02-28T15:10:47.152Z,13.15
2023-02-28T15:13:53.178Z,13.80
2023-02-28T15:17:01.601Z,15.45
2023-02-28T15:20:04.707Z,17.15
2023-02-28T15:23:08.979Z,24.38
2023-02-28T15:26:26.754Z,22.10
2023-02-28T15:29:33.187Z,15.82
2023-02-28T15:32:38.446Z,14.45
2023-02-28T15:35:41.058Z,11.80
2023-02-28T15:38:44.879Z,11.52
2023-02-28T15:41:47.381Z,14.50
2023-02-28T15:44:50.183Z,20.60
2023-02-28T15:47:53.637Z,23.27
2023-02-28T15:51:07.385Z,26.80
2023-02-28T15:54:25.475Z,34.63
2023-02-28T15:57:30.601Z,28.40
2023-02-28T16:00:36.172Z,29.50
2023-02-28T16:03:44.215Z,29.02
2023-02-28T16:06:49.464Z,31.27
2023-02-28T16:09:52.485Z,31.30
2023-02-28T16:12:56.831Z,35.10
2023-02-28T16:16:01.655Z,33.85
2023-02-28T16:19:04.246Z,40.55
2023-02-28T16:22:06.646Z,42.78
2023-02-28T16:25:16.649Z,37.47
2023-02-28T16:28:26.316Z,32.37
2023-02-28T16:31:29.642Z,26.08
2023-02-28T16:34:32.740Z,28.83
2023-02-28T16:37:35.050Z,27.67
2023-02-28T16:40:38.558Z,23.17
2023-02-28T16:43:41.469Z,29.23
2023-02-28T16:46:43.895Z,27.25
2023-02-28T16:49:46.371Z,25.75
2023-02-28T16:52:50.490Z,35.03
2023-02-28T16:55:52.944Z,37.25
2023-02-28T16:58:58.947Z,21.63
2023-02-28T17:02:01.874Z,39.53
2023-02-28T17:05:05.014Z,22.90
2023-02-28T17:08:07.438Z,20.23
2023-02-28T17:11:10.775Z,24.30
2023-02-28T17:14:13.811Z,29.35
2023-02-28T17:17:22.516Z,30.90
2023-02-28T17:20:25.722Z,34.28
2023-02-28T17:23:28.502Z,35.55
2023-02-28T17:26:31.404Z,34.03
2023-02-28T17:29:34.211Z,31.07
2023-02-28T17:32:37.055Z,26.38
2023-02-28T17:35:39.833Z,22.25
2023-02-28T17:38:42.922Z,25.00
2023-02-28T17:41:45.517Z,23.65
2023-02-28T17:44:47.944Z,25.38
2023-02-28T17:47:53.353Z,30.55
2023-02-28T17:50:56.344Z,33.00
2023-02-28T17:53:58.800Z,37.65
2023-02-28T17:57:01.482Z,57.65
2023-02-28T18:00:07.760Z,47.00
2023-02-28T18:03:15.047Z,49.95
2023-02-28T18:06:23.231Z,46.33
2023-02-28T18:09:25.838Z,48.33
2023-02-28T18:12:28.376Z,41.50
2023-02-28T18:15:31.115Z,39.13
2023-02-28T18:18:34.067Z,43.92
2023-02-28T18:21:36.941Z,55.55
2023-02-28T18:24:39.439Z,80.43
2023-02-28T18:27:53.956Z,46.78
2023-02-28T18:30:57.838Z,40.00
2023-02-28T18:34:01.380Z,33.72
2023-02-28T18:37:04.328Z,19.20
2023-02-28T18:40:07.806Z,14.67
2023-02-28T18:43:12.314Z,17.25
2023-02-28T18:46:17.820Z,16.98
2023-02-28T18:49:20.685Z,17.73
2023-02-28T18:52:23.447Z,21.45
2023-02-28T18:55:27.905Z,26.70
2023-02-28T18:58:31.810Z,49.08
2023-02-28T19:01:35.077Z,28.90
2023-02-28T19:04:38.081Z,26.60
2023-02-28T19:07:41.019Z,20.08
2023-02-28T19:10:43.706Z,11.53
2023-02-28T19:13:47.164Z,12.32
2023-02-28T19:16:50.846Z,11.43
2023-02-28T19:19:53.611Z,12.02
2023-02-28T19:22:56.470Z,9.40
2023-02-28T19:25:59.981Z,16.17
2023-02-28T19:29:05.162Z,15.00
2023-02-28T19:32:07.845Z,18.83
2023-02-28T19:35:12.381Z,18.02
2023-02-28T19:38:15.885Z,16.80
2023-02-28T19:41:20.096Z,21.43
2023-02-28T19:44:22.788Z,17.23
2023-02-28T19:47:25.470Z,22.67
2023-02-28T19:50:28.821Z,22.58
2023-02-28T19:53:33.036Z,19.13
2023-02-28T19:56:35.663Z,21.75
2023-02-28T19:59:39.808Z,18.50
2023-02-28T20:02:43.833Z,21.33
2023-02-28T20:05:47.093Z,17.73
2023-02-28T20:08:49.946Z,14.50
2023-02-28T20:11:52.600Z,11.40
2023-02-28T20:14:58.148Z,11.60
2023-02-28T20:18:00.877Z,11.95
2023-02-28T20:21:04.291Z,10.82
2023-02-28T20:24:07.241Z,12.73
2023-02-28T20:27:09.930Z,12.43
2023-02-28T20:30:13.120Z,11.70
2023-02-28T20:33:18.397Z,12.73
2023-02-28T20:36:22.581Z,13.68
2023-02-28T20:39:25.815Z,11.70
2023-02-28T20:42:28.367Z,15.93
2023-02-28T20:45:31.435Z,15.80
2023-02-28T20:48:36.057Z,14.80
2023-02-28T20:51:40.172Z,18.52
2023-02-28T20:54:42.900Z,19.02
2023-02-28T20:57:45.584Z,21.20
2023-02-28T21:00:48.995Z,23.90
2023-02-28T21:03:56.522Z,21.83
2023-02-28T21:06:59.370Z,22.50
2023-02-28T21:10:01.796Z,24.17
2023-02-28T21:13:04.445Z,25.67
2023-02-28T21:16:09.864Z,21.98
2023-02-28T21:19:12.784Z,22.60
2023-02-28T21:22:15.857Z,21.55
2023-02-28T21:25:18.798Z,21.13
2023-02-28T21:28:21.137Z,22.02
2023-02-28T21:31:25.581Z,18.80
2023-02-28T21:34:28.576Z,20.07
2023-02-28T21:37:30.998Z,18.13
2023-02-28T21:40:33.717Z,16.60
2023-02-28T21:43:36.243Z,15.83
2023-02-28T21:46:38.825Z,13.55
2023-02-28T21:49:41.228Z,12.23
2023-02-28T21:52:45.224Z,13.60
2023-02-28T21:55:47.640Z,10.73
2023-02-28T21:58:50.844Z,12.27
2023-02-28T22:01:55.096Z,12.13
2023-02-28T22:05:03.453Z,9.63
2023-02-28T22:08:06.587Z,10.18
2023-02-28T22:11:10.345Z,11.57
2023-02-28T22:14:13.086Z,9.30
2023-02-28T22:17:15.403Z,11.00
2023-02-28T22:20:18.009Z,11.63
2023-02-28T22:23:20.531Z,11.65
2023-02-28T22:26:23.533Z,9.35
2023-02-28T22:29:26.018Z,10.75
2023-02-28T22:32:28.419Z,10.98
2023-02-28T22:35:30.891Z,11.27
2023-02-28T22:38:35.423Z,12.32
2023-02-28T22:41:38.334Z,10.13
2023-02-28T22:44:41.030Z,13.67
2023-02-28T22:47:43.442Z,12.13
2023-02-28T22:50:46.434Z,11.30
2023-02-28T22:53:50.001Z,10.90
2023-02-28T22:56:52.377Z,11.43
2023-02-28T22:59:54.802Z,10.45
2023-02-28T23:02:57.246Z,9.70
2023-02-28T23:05:59.870Z,10.57
2023-02-28T23:09:05.762Z,12.32
2023-02-28T23:12:08.255Z,10.95
2023-02-28T23:15:11.665Z,10.83
2023-02-28T23:18:15.598Z,9.90
2023-02-28T23:21:17.941Z,9.70
2023-02-28T23:24:23.853Z,12.13
2023-02-28T23:27:26.332Z,9.55
2023-02-28T23:30:29.609Z,9.13
2023-02-28T23:33:33.238Z,8.95
2023-02-28T23:36:35.665Z,10.27
2023-02-28T23:39:38.308Z,11.65
2023-02-28T23:42:40.735Z,11.50
2023-02-28T23:45:46.678Z,10.70
2023-02-28T23:48:49.605Z,10.63
2023-02-28T23:51:54.396Z,11.88
2023-02-28T23:54:57.014Z,10.50
2023-02-28T23:57:59.391Z,10.93
